sensor_id;sensor_type;location;lat;lon;timestamp;P1;durP1;ratioP1;P2;durP2;ratioP2
11197;SDS011;5655;48.744;9.162;2023-07-31T00:01:55;3.00;;;1.58;;
11197;SDS011;5655;48.744;9.162;2023-07-31T00:04:20;3.22;;;1.50;;
11197;SDS011;5655;48.744;9.162;2023-07-31T00:06:45;3.65;;;1.60;;
11197;SDS011;5655;48.744;9.162;2023-07-31T00:09:11;3.60;;;1.60;;
11197;SDS011;5655;48.744;9.162;2023-07-31T00:11:36;5.20;;;1.73;;
11197;SDS011;5655;48.744;9.162;2023-07-31T00:14:01;5.93;;;1.92;;
11197;SDS011;5655;48.744;9.162;2023-07-31T00:16:27;3.33;;;1.77;;
11197;SDS011;5655;48.744;9.162;2023-07-31T00:18:52;2.58;;;1.90;;
11197;SDS011;5655;48.744;9.162;2023-07-31T00:21:18;2.67;;;1.73;;
11197;SDS011;5655;48.744;9.162;2023-07-31T00:23:43;4.28;;;1.60;;
11197;SDS011;5655;48.744;9.162;2023-07-31T00:26:08;4.18;;;2.03;;
11197;SDS011;5655;48.744;9.162;2023-07-31T00:28:33;3.17;;;1.67;;
11197;SDS011;5655;48.744;9.162;2023-07-31T00:30:59;3.33;;;1.90;;
11197;SDS011;5655;48.744;9.162;2023-07-31T00:33:24;2.92;;;1.60;;
11197;SDS011;5655;48.744;9.162;2023-07-31T00:35:49;3.33;;;1.70;;
11197;SDS011;5655;48.744;9.162;2023-07-31T00:38:15;3.63;;;1.75;;
11197;SDS011;5655;48.744;9.162;2023-07-31T00:40:40;3.75;;;1.58;;
11197;SDS011;5655;48.744;9.162;2023-07-31T00:43:05;3.55;;;1.70;;
11197;SDS011;5655;48.744;9.162;2023-07-31T00:45:31;3.20;;;1.67;;
11197;SDS011;5655;48.744;9.162;2023-07-31T00:47:57;3.58;;;1.83;;
11197;SDS011;5655;48.744;9.162;2023-07-31T00:50:24;3.83;;;1.90;;
11197;SDS011;5655;48.744;9.162;2023-07-31T00:52:50;2.80;;;1.42;;
11197;SDS011;5655;48.744;9.162;2023-07-31T00:55:15;4.97;;;1.70;;
11197;SDS011;5655;48.744;9.162;2023-07-31T00:57:41;3.00;;;1.67;;
11197;SDS011;5655;48.744;9.162;2023-07-31T01:00:07;2.70;;;1.77;;
11197;SDS011;5655;48.744;9.162;2023-07-31T01:02:33;4.38;;;1.60;;
11197;SDS011;5655;48.744;9.162;2023-07-31T01:04:58;4.35;;;1.70;;
11197;SDS011;5655;48.744;9.162;2023-07-31T01:07:34;5.03;;;1.60;;
11197;SDS011;5655;48.744;9.162;2023-07-31T01:10:11;4.13;;;1.88;;
11197;SDS011;5655;48.744;9.162;2023-07-31T01:12:42;5.28;;;1.95;;
11197;SDS011;5655;48.744;9.162;2023-07-31T01:15:10;3.58;;;1.80;;
11197;SDS011;5655;48.744;9.162;2023-07-31T01:17:36;2.80;;;1.58;;
11197;SDS011;5655;48.744;9.162;2023-07-31T01:20:03;3.33;;;1.83;;
11197;SDS011;5655;48.744;9.162;2023-07-31T01:28:20;5.93;;;2.22;;
11197;SDS011;5655;48.744;9.162;2023-07-31T01:30:55;4.00;;;1.80;;
11197;SDS011;5655;48.744;9.162;2023-07-31T01:33:25;2.92;;;1.70;;
11197;SDS011;5655;48.744;9.162;2023-07-31T01:35:51;2.67;;;1.55;;
11197;SDS011;5655;48.744;9.162;2023-07-31T01:38:21;4.40;;;1.70;;
11197;SDS011;5655;48.744;9.162;2023-07-31T01:40:50;4.60;;;1.98;;
11197;SDS011;5655;48.744;9.162;2023-07-31T01:43:17;4.25;;;1.88;;
11197;SDS011;5655;48.744;9.162;2023-07-31T01:45:42;3.53;;;1.52;;
11197;SDS011;5655;48.744;9.162;2023-07-31T01:48:07;2.97;;;2.08;;
11197;SDS011;5655;48.744;9.162;2023-07-31T01:50:33;4.05;;;2.00;;
11197;SDS011;5655;48.744;9.162;2023-07-31T01:52:58;4.68;;;1.88;;
11197;SDS011;5655;48.744;9.162;2023-07-31T01:55:23;3.47;;;1.90;;
11197;SDS011;5655;48.744;9.162;2023-07-31T01:57:49;3.25;;;1.45;;
11197;SDS011;5655;48.744;9.162;2023-07-31T02:00:14;3.13;;;1.70;;
11197;SDS011;5655;48.744;9.162;2023-07-31T02:02:39;4.95;;;2.03;;
11197;SDS011;5655;48.744;9.162;2023-07-31T02:05:05;3.63;;;1.73;;
11197;SDS011;5655;48.744;9.162;2023-07-31T02:07:30;3.25;;;1.48;;
11197;SDS011;5655;48.744;9.162;2023-07-31T02:09:56;4.00;;;1.58;;
11197;SDS011;5655;48.744;9.162;2023-07-31T02:12:21;7.75;;;2.00;;
11197;SDS011;5655;48.744;9.162;2023-07-31T02:14:46;3.58;;;1.75;;
11197;SDS011;5655;48.744;9.162;2023-07-31T02:17:12;6.97;;;1.60;;
11197;SDS011;5655;48.744;9.162;2023-07-31T02:19:37;2.80;;;1.70;;
11197;SDS011;5655;48.744;9.162;2023-07-31T02:22:02;2.65;;;1.67;;
11197;SDS011;5655;48.744;9.162;2023-07-31T02:24:28;4.57;;;2.13;;
11197;SDS011;5655;48.744;9.162;2023-07-31T02:26:53;5.75;;;1.75;;
11197;SDS011;5655;48.744;9.162;2023-07-31T02:29:18;3.47;;;2.13;;
11197;SDS011;5655;48.744;9.162;2023-07-31T02:31:44;1.90;;;1.60;;
11197;SDS011;5655;48.744;9.162;2023-07-31T02:34:09;2.63;;;1.70;;
11197;SDS011;5655;48.744;9.162;2023-07-31T02:36:34;5.00;;;2.10;;
11197;SDS011;5655;48.744;9.162;2023-07-31T02:39:00;3.00;;;2.00;;
11197;SDS011;5655;48.744;9.162;2023-07-31T02:41:25;3.58;;;1.92;;
11197;SDS011;5655;48.744;9.162;2023-07-31T02:43:50;5.40;;;1.85;;
11197;SDS011;5655;48.744;9.162;2023-07-31T02:46:16;2.65;;;1.90;;
11197;SDS011;5655;48.744;9.162;2023-07-31T02:48:41;4.13;;;1.63;;
11197;SDS011;5655;48.744;9.162;2023-07-31T02:51:06;4.43;;;1.80;;
11197;SDS011;5655;48.744;9.162;2023-07-31T02:53:31;6.05;;;1.73;;
11197;SDS011;5655;48.744;9.162;2023-07-31T02:55:57;1.88;;;1.65;;
11197;SDS011;5655;48.744;9.162;2023-07-31T02:58:22;2.75;;;1.83;;
11197;SDS011;5655;48.744;9.162;2023-07-31T03:00:47;2.47;;;1.50;;
11197;SDS011;5655;48.744;9.162;2023-07-31T03:03:13;4.45;;;2.08;;
11197;SDS011;5655;48.744;9.162;2023-07-31T03:05:38;4.65;;;1.70;;
11197;SDS011;5655;48.744;9.162;2023-07-31T03:08:03;3.13;;;1.83;;
11197;SDS011;5655;48.744;9.162;2023-07-31T03:10:29;3.03;;;1.90;;
11197;SDS011;5655;48.744;9.162;2023-07-31T03:12:54;3.58;;;1.85;;
11197;SDS011;5655;48.744;9.162;2023-07-31T03:15:19;5.15;;;2.13;;
11197;SDS011;5655;48.744;9.162;2023-07-31T03:17:45;2.70;;;1.95;;
11197;SDS011;5655;48.744;9.162;2023-07-31T03:20:10;4.85;;;2.10;;
11197;SDS011;5655;48.744;9.162;2023-07-31T03:22:36;4.47;;;1.73;;
11197;SDS011;5655;48.744;9.162;2023-07-31T03:25:02;4.30;;;2.10;;
11197;SDS011;5655;48.744;9.162;2023-07-31T03:27:27;3.22;;;2.00;;
11197;SDS011;5655;48.744;9.162;2023-07-31T03:29:53;5.70;;;1.90;;
11197;SDS011;5655;48.744;9.162;2023-07-31T03:32:18;4.63;;;1.80;;
11197;SDS011;5655;48.744;9.162;2023-07-31T03:34:43;4.40;;;2.00;;
11197;SDS011;5655;48.744;9.162;2023-07-31T03:37:09;3.75;;;1.90;;
11197;SDS011;5655;48.744;9.162;2023-07-31T03:39:34;2.97;;;1.58;;
11197;SDS011;5655;48.744;9.162;2023-07-31T03:42:00;5.65;;;2.17;;
11197;SDS011;5655;48.744;9.162;2023-07-31T03:44:25;5.05;;;2.00;;
11197;SDS011;5655;48.744;9.162;2023-07-31T03:46:50;3.75;;;1.92;;
11197;SDS011;5655;48.744;9.162;2023-07-31T03:49:16;3.67;;;1.85;;
11197;SDS011;5655;48.744;9.162;2023-07-31T03:51:41;4.20;;;1.95;;
11197;SDS011;5655;48.744;9.162;2023-07-31T03:54:06;7.68;;;2.42;;
11197;SDS011;5655;48.744;9.162;2023-07-31T03:56:32;4.97;;;2.15;;
11197;SDS011;5655;48.744;9.162;2023-07-31T03:58:58;4.93;;;2.78;;
11197;SDS011;5655;48.744;9.162;2023-07-31T04:01:23;2.78;;;1.90;;
11197;SDS011;5655;48.744;9.162;2023-07-31T04:03:48;4.30;;;1.98;;
11197;SDS011;5655;48.744;9.162;2023-07-31T04:06:14;2.15;;;1.50;;
11197;SDS011;5655;48.744;9.162;2023-07-31T04:08:42;4.90;;;2.20;;
11197;SDS011;5655;48.744;9.162;2023-07-31T04:11:08;3.25;;;1.63;;
11197;SDS011;5655;48.744;9.162;2023-07-31T04:13:33;3.65;;;2.00;;
11197;SDS011;5655;48.744;9.162;2023-07-31T04:15:59;3.20;;;1.67;;
11197;SDS011;5655;48.744;9.162;2023-07-31T04:18:24;6.68;;;1.88;;
11197;SDS011;5655;48.744;9.162;2023-07-31T04:20:51;3.08;;;2.10;;
11197;SDS011;5655;48.744;9.162;2023-07-31T04:23:16;4.65;;;1.80;;
11197;SDS011;5655;48.744;9.162;2023-07-31T04:25:41;6.43;;;2.17;;
11197;SDS011;5655;48.744;9.162;2023-07-31T04:28:06;4.65;;;1.92;;
11197;SDS011;5655;48.744;9.162;2023-07-31T04:30:32;6.97;;;2.22;;
11197;SDS011;5655;48.744;9.162;2023-07-31T04:32:57;5.00;;;1.75;;
11197;SDS011;5655;48.744;9.162;2023-07-31T04:35:23;2.83;;;1.92;;
11197;SDS011;5655;48.744;9.162;2023-07-31T04:37:48;3.17;;;1.67;;
11197;SDS011;5655;48.744;9.162;2023-07-31T04:40:14;3.83;;;1.88;;
11197;SDS011;5655;48.744;9.162;2023-07-31T04:42:40;2.90;;;1.67;;
11197;SDS011;5655;48.744;9.162;2023-07-31T04:45:05;4.20;;;1.88;;
11197;SDS011;5655;48.744;9.162;2023-07-31T04:47:31;4.72;;;2.00;;
11197;SDS011;5655;48.744;9.162;2023-07-31T04:49:56;4.47;;;2.03;;
11197;SDS011;5655;48.744;9.162;2023-07-31T04:52:21;3.88;;;1.60;;
11197;SDS011;5655;48.744;9.162;2023-07-31T04:54:47;2.15;;;1.63;;
11197;SDS011;5655;48.744;9.162;2023-07-31T04:57:12;4.28;;;2.08;;
11197;SDS011;5655;48.744;9.162;2023-07-31T04:59:37;5.53;;;1.92;;
11197;SDS011;5655;48.744;9.162;2023-07-31T05:02:03;2.83;;;1.50;;
11197;SDS011;5655;48.744;9.162;2023-07-31T05:04:28;3.80;;;1.95;;
11197;SDS011;5655;48.744;9.162;2023-07-31T05:06:54;4.03;;;1.83;;
11197;SDS011;5655;48.744;9.162;2023-07-31T05:09:19;4.25;;;1.70;;
11197;SDS011;5655;48.744;9.162;2023-07-31T05:11:45;3.53;;;1.80;;
11197;SDS011;5655;48.744;9.162;2023-07-31T05:14:10;3.03;;;1.90;;
11197;SDS011;5655;48.744;9.162;2023-07-31T05:16:35;4.28;;;1.77;;
11197;SDS011;5655;48.744;9.162;2023-07-31T05:19:01;6.00;;;2.50;;
11197;SDS011;5655;48.744;9.162;2023-07-31T05:21:26;5.15;;;2.30;;
11197;SDS011;5655;48.744;9.162;2023-07-31T05:23:51;4.22;;;1.70;;
11197;SDS011;5655;48.744;9.162;2023-07-31T05:26:16;3.97;;;1.83;;
11197;SDS011;5655;48.744;9.162;2023-07-31T05:28:42;3.88;;;1.60;;
11197;SDS011;5655;48.744;9.162;2023-07-31T05:31:08;3.47;;;1.70;;
11197;SDS011;5655;48.744;9.162;2023-07-31T05:33:33;3.13;;;1.80;;
11197;SDS011;5655;48.744;9.162;2023-07-31T05:35:58;2.85;;;1.83;;
11197;SDS011;5655;48.744;9.162;2023-07-31T05:38:24;6.07;;;1.90;;
11197;SDS011;5655;48.744;9.162;2023-07-31T05:40:49;4.93;;;2.00;;
11197;SDS011;5655;48.744;9.162;2023-07-31T05:43:15;4.82;;;1.98;;
11197;SDS011;5655;48.744;9.162;2023-07-31T05:45:41;4.63;;;1.73;;
11197;SDS011;5655;48.744;9.162;2023-07-31T05:48:07;5.25;;;1.70;;
11197;SDS011;5655;48.744;9.162;2023-07-31T05:50:32;3.13;;;1.90;;
11197;SDS011;5655;48.744;9.162;2023-07-31T05:52:58;4.43;;;1.85;;
11197;SDS011;5655;48.744;9.162;2023-07-31T05:55:23;4.13;;;1.70;;
11197;SDS011;5655;48.744;9.162;2023-07-31T05:57:51;6.32;;;1.83;;
11197;SDS011;5655;48.744;9.162;2023-07-31T06:00:17;3.40;;;1.80;;
11197;SDS011;5655;48.744;9.162;2023-07-31T06:02:42;4.20;;;1.92;;
11197;SDS011;5655;48.744;9.162;2023-07-31T06:05:08;3.22;;;1.80;;
11197;SDS011;5655;48.744;9.162;2023-07-31T06:07:33;5.28;;;2.00;;
11197;SDS011;5655;48.744;9.162;2023-07-31T06:09:58;5.80;;;1.85;;
11197;SDS011;5655;48.744;9.162;2023-07-31T06:12:30;5.00;;;1.92;;
11197;SDS011;5655;48.744;9.162;2023-07-31T06:14:56;3.13;;;1.65;;
11197;SDS011;5655;48.744;9.162;2023-07-31T06:17:21;3.55;;;1.80;;
11197;SDS011;5655;48.744;9.162;2023-07-31T06:19:46;5.10;;;2.03;;
11197;SDS011;5655;48.744;9.162;2023-07-31T06:22:12;3.38;;;1.98;;
11197;SDS011;5655;48.744;9.162;2023-07-31T06:24:37;4.35;;;1.67;;
11197;SDS011;5655;48.744;9.162;2023-07-31T06:27:02;5.53;;;2.00;;
11197;SDS011;5655;48.744;9.162;2023-07-31T06:29:29;4.80;;;2.00;;
11197;SDS011;5655;48.744;9.162;2023-07-31T06:31:55;5.22;;;1.90;;
11197;SDS011;5655;48.744;9.162;2023-07-31T06:34:20;4.40;;;1.58;;
11197;SDS011;5655;48.744;9.162;2023-07-31T06:36:45;3.10;;;1.60;;
11197;SDS011;5655;48.744;9.162;2023-07-31T06:39:11;4.68;;;2.28;;
11197;SDS011;5655;48.744;9.162;2023-07-31T06:41:36;4.43;;;1.80;;
11197;SDS011;5655;48.744;9.162;2023-07-31T06:44:01;6.88;;;2.15;;
11197;SDS011;5655;48.744;9.162;2023-07-31T06:46:27;5.53;;;1.55;;
11197;SDS011;5655;48.744;9.162;2023-07-31T06:48:52;4.20;;;1.67;;
11197;SDS011;5655;48.744;9.162;2023-07-31T06:51:17;3.58;;;1.92;;
11197;SDS011;5655;48.744;9.162;2023-07-31T06:53:43;5.22;;;1.77;;
11197;SDS011;5655;48.744;9.162;2023-07-31T06:56:10;5.75;;;2.58;;
11197;SDS011;5655;48.744;9.162;2023-07-31T06:58:35;6.68;;;2.13;;
11197;SDS011;5655;48.744;9.162;2023-07-31T07:01:00;4.43;;;1.73;;
11197;SDS011;5655;48.744;9.162;2023-07-31T07:03:26;3.42;;;1.60;;
11197;SDS011;5655;48.744;9.162;2023-07-31T07:05:52;5.68;;;1.70;;
11197;SDS011;5655;48.744;9.162;2023-07-31T07:08:17;4.47;;;1.60;;
11197;SDS011;5655;48.744;9.162;2023-07-31T07:10:43;4.18;;;1.60;;
11197;SDS011;5655;48.744;9.162;2023-07-31T07:13:08;4.07;;;1.80;;
11197;SDS011;5655;48.744;9.162;2023-07-31T07:15:34;3.13;;;1.67;;
11197;SDS011;5655;48.744;9.162;2023-07-31T07:17:59;7.25;;;1.50;;
11197;SDS011;5655;48.744;9.162;2023-07-31T07:20:25;2.60;;;1.48;;
11197;SDS011;5655;48.744;9.162;2023-07-31T07:22:50;7.32;;;2.47;;
11197;SDS011;5655;48.744;9.162;2023-07-31T07:25:15;4.72;;;2.03;;
11197;SDS011;5655;48.744;9.162;2023-07-31T07:27:41;5.72;;;1.83;;
11197;SDS011;5655;48.744;9.162;2023-07-31T07:30:06;4.78;;;1.88;;
11197;SDS011;5655;48.744;9.162;2023-07-31T07:32:32;3.85;;;1.92;;
11197;SDS011;5655;48.744;9.162;2023-07-31T07:34:57;3.60;;;1.95;;
11197;SDS011;5655;48.744;9.162;2023-07-31T07:37:22;4.85;;;1.85;;
11197;SDS011;5655;48.744;9.162;2023-07-31T07:39:48;7.20;;;2.00;;
11197;SDS011;5655;48.744;9.162;2023-07-31T07:42:13;3.10;;;1.63;;
11197;SDS011;5655;48.744;9.162;2023-07-31T07:44:38;5.43;;;1.60;;
11197;SDS011;5655;48.744;9.162;2023-07-31T07:47:04;4.65;;;2.08;;
11197;SDS011;5655;48.744;9.162;2023-07-31T07:49:32;4.88;;;2.47;;
11197;SDS011;5655;48.744;9.162;2023-07-31T07:52:00;3.80;;;1.80;;
11197;SDS011;5655;48.744;9.162;2023-07-31T07:54:26;4.55;;;1.80;;
11197;SDS011;5655;48.744;9.162;2023-07-31T07:56:52;5.68;;;1.80;;
11197;SDS011;5655;48.744;9.162;2023-07-31T07:59:17;6.20;;;2.20;;
11197;SDS011;5655;48.744;9.162;2023-07-31T08:01:43;4.43;;;1.83;;
11197;SDS011;5655;48.744;9.162;2023-07-31T08:04:08;4.03;;;2.13;;
11197;SDS011;5655;48.744;9.162;2023-07-31T08:06:33;4.75;;;2.25;;
11197;SDS011;5655;48.744;9.162;2023-07-31T08:08:59;5.68;;;1.92;;
11197;SDS011;5655;48.744;9.162;2023-07-31T08:11:24;4.68;;;1.92;;
11197;SDS011;5655;48.744;9.162;2023-07-31T08:13:50;5.00;;;2.20;;
11197;SDS011;5655;48.744;9.162;2023-07-31T08:16:15;3.75;;;1.80;;
11197;SDS011;5655;48.744;9.162;2023-07-31T08:18:41;4.25;;;2.00;;
11197;SDS011;5655;48.744;9.162;2023-07-31T08:21:07;5.97;;;1.95;;
11197;SDS011;5655;48.744;9.162;2023-07-31T08:23:33;4.97;;;2.30;;
11197;SDS011;5655;48.744;9.162;2023-07-31T08:25:58;5.45;;;2.33;;
11197;SDS011;5655;48.744;9.162;2023-07-31T08:28:24;5.07;;;2.10;;
11197;SDS011;5655;48.744;9.162;2023-07-31T08:30:50;5.20;;;2.00;;
11197;SDS011;5655;48.744;9.162;2023-07-31T08:33:16;4.05;;;1.88;;
11197;SDS011;5655;48.744;9.162;2023-07-31T08:35:41;6.28;;;2.33;;
11197;SDS011;5655;48.744;9.162;2023-07-31T08:38:06;4.03;;;2.05;;
11197;SDS011;5655;48.744;9.162;2023-07-31T08:40:32;6.15;;;2.28;;
11197;SDS011;5655;48.744;9.162;2023-07-31T08:43:00;6.47;;;1.92;;
11197;SDS011;5655;48.744;9.162;2023-07-31T08:45:27;4.85;;;2.05;;
11197;SDS011;5655;48.744;9.162;2023-07-31T08:47:53;4.07;;;1.98;;
11197;SDS011;5655;48.744;9.162;2023-07-31T08:50:20;4.07;;;1.75;;
11197;SDS011;5655;48.744;9.162;2023-07-31T08:52:46;7.40;;;2.85;;
11197;SDS011;5655;48.744;9.162;2023-07-31T08:55:13;3.58;;;1.80;;
11197;SDS011;5655;48.744;9.162;2023-07-31T08:57:39;6.90;;;2.20;;
11197;SDS011;5655;48.744;9.162;2023-07-31T09:00:05;5.05;;;1.85;;
11197;SDS011;5655;48.744;9.162;2023-07-31T09:02:37;5.25;;;2.55;;
11197;SDS011;5655;48.744;9.162;2023-07-31T09:05:06;3.95;;;2.17;;
11197;SDS011;5655;48.744;9.162;2023-07-31T09:07:33;5.32;;;2.10;;
11197;SDS011;5655;48.744;9.162;2023-07-31T09:10:00;5.88;;;2.35;;
11197;SDS011;5655;48.744;9.162;2023-07-31T09:12:25;7.93;;;2.35;;
11197;SDS011;5655;48.744;9.162;2023-07-31T09:14:51;6.32;;;2.65;;
11197;SDS011;5655;48.744;9.162;2023-07-31T09:17:16;5.43;;;2.22;;
11197;SDS011;5655;48.744;9.162;2023-07-31T09:19:56;5.63;;;1.95;;
11197;SDS011;5655;48.744;9.162;2023-07-31T09:22:41;4.95;;;2.30;;
11197;SDS011;5655;48.744;9.162;2023-07-31T09:25:20;4.85;;;2.10;;
11197;SDS011;5655;48.744;9.162;2023-07-31T09:30:12;8.02;;;2.53;;
11197;SDS011;5655;48.744;9.162;2023-07-31T09:32:37;6.55;;;1.85;;
11197;SDS011;5655;48.744;9.162;2023-07-31T09:35:13;4.25;;;1.85;;
11197;SDS011;5655;48.744;9.162;2023-07-31T09:37:38;7.75;;;2.38;;
11197;SDS011;5655;48.744;9.162;2023-07-31T09:40:03;4.75;;;2.15;;
11197;SDS011;5655;48.744;9.162;2023-07-31T09:42:29;4.75;;;2.20;;
11197;SDS011;5655;48.744;9.162;2023-07-31T09:45:06;4.93;;;2.22;;
11197;SDS011;5655;48.744;9.162;2023-07-31T09:47:35;4.25;;;2.17;;
11197;SDS011;5655;48.744;9.162;2023-07-31T09:50:00;5.93;;;2.55;;
11197;SDS011;5655;48.744;9.162;2023-07-31T09:52:26;6.75;;;2.75;;
11197;SDS011;5655;48.744;9.162;2023-07-31T09:54:52;4.85;;;2.33;;
11197;SDS011;5655;48.744;9.162;2023-07-31T09:57:17;4.65;;;2.10;;
11197;SDS011;5655;48.744;9.162;2023-07-31T09:59:47;6.35;;;2.10;;
11197;SDS011;5655;48.744;9.162;2023-07-31T10:02:15;6.65;;;2.28;;
11197;SDS011;5655;48.744;9.162;2023-07-31T10:04:47;6.70;;;2.70;;
11197;SDS011;5655;48.744;9.162;2023-07-31T10:07:15;4.80;;;2.17;;
11197;SDS011;5655;48.744;9.162;2023-07-31T10:09:43;5.35;;;2.13;;
11197;SDS011;5655;48.744;9.162;2023-07-31T10:12:09;5.30;;;2.35;;
11197;SDS011;5655;48.744;9.162;2023-07-31T10:14:37;4.88;;;2.30;;
11197;SDS011;5655;48.744;9.162;2023-07-31T10:17:03;6.25;;;2.47;;
11197;SDS011;5655;48.744;9.162;2023-07-31T10:19:30;8.27;;;2.67;;
11197;SDS011;5655;48.744;9.162;2023-07-31T10:21:57;7.38;;;3.10;;
11197;SDS011;5655;48.744;9.162;2023-07-31T10:24:23;9.00;;;2.47;;
11197;SDS011;5655;48.744;9.162;2023-07-31T10:26:50;6.32;;;2.80;;
11197;SDS011;5655;48.744;9.162;2023-07-31T10:29:18;6.80;;;2.40;;
11197;SDS011;5655;48.744;9.162;2023-07-31T10:31:44;4.95;;;2.13;;
11197;SDS011;5655;48.744;9.162;2023-07-31T10:34:11;5.75;;;2.20;;
11197;SDS011;5655;48.744;9.162;2023-07-31T10:36:36;4.65;;;2.30;;
11197;SDS011;5655;48.744;9.162;2023-07-31T10:39:03;4.82;;;2.05;;
11197;SDS011;5655;48.744;9.162;2023-07-31T10:41:29;6.72;;;2.72;;
11197;SDS011;5655;48.744;9.162;2023-07-31T10:44:01;4.00;;;2.10;;
11197;SDS011;5655;48.744;9.162;2023-07-31T10:46:27;4.70;;;2.08;;
11197;SDS011;5655;48.744;9.162;2023-07-31T10:49:00;6.18;;;2.63;;
11197;SDS011;5655;48.744;9.162;2023-07-31T10:51:33;4.07;;;2.30;;
11197;SDS011;5655;48.744;9.162;2023-07-31T10:54:12;5.15;;;2.45;;
11197;SDS011;5655;48.744;9.162;2023-07-31T10:56:45;4.00;;;2.20;;
11197;SDS011;5655;48.744;9.162;2023-07-31T10:59:11;5.70;;;2.00;;
11197;SDS011;5655;48.744;9.162;2023-07-31T11:01:53;4.15;;;2.13;;
11197;SDS011;5655;48.744;9.162;2023-07-31T11:04:23;5.05;;;2.22;;
11197;SDS011;5655;48.744;9.162;2023-07-31T11:06:58;6.57;;;2.42;;
11197;SDS011;5655;48.744;9.162;2023-07-31T11:09:27;6.35;;;2.20;;
11197;SDS011;5655;48.744;9.162;2023-07-31T11:11:55;8.48;;;3.03;;
11197;SDS011;5655;48.744;9.162;2023-07-31T11:14:20;5.10;;;2.25;;
11197;SDS011;5655;48.744;9.162;2023-07-31T11:16:46;4.25;;;2.33;;
11197;SDS011;5655;48.744;9.162;2023-07-31T11:19:15;9.02;;;2.25;;
11197;SDS011;5655;48.744;9.162;2023-07-31T11:21:47;6.13;;;2.80;;
11197;SDS011;5655;48.744;9.162;2023-07-31T11:24:13;5.30;;;2.65;;
11197;SDS011;5655;48.744;9.162;2023-07-31T11:26:38;4.38;;;2.10;;
11197;SDS011;5655;48.744;9.162;2023-07-31T11:29:10;7.30;;;2.28;;
11197;SDS011;5655;48.744;9.162;2023-07-31T11:31:41;5.32;;;2.47;;
11197;SDS011;5655;48.744;9.162;2023-07-31T11:34:08;6.70;;;3.03;;
11197;SDS011;5655;48.744;9.162;2023-07-31T11:36:33;4.90;;;2.85;;
11197;SDS011;5655;48.744;9.162;2023-07-31T11:39:05;4.22;;;2.40;;
11197;SDS011;5655;48.744;9.162;2023-07-31T11:41:31;5.13;;;2.30;;
11197;SDS011;5655;48.744;9.162;2023-07-31T11:43:59;4.97;;;2.53;;
11197;SDS011;5655;48.744;9.162;2023-07-31T11:46:25;4.20;;;2.38;;
11197;SDS011;5655;48.744;9.162;2023-07-31T11:48:51;4.03;;;2.15;;
11197;SDS011;5655;48.744;9.162;2023-07-31T11:51:16;6.63;;;2.30;;
11197;SDS011;5655;48.744;9.162;2023-07-31T11:53:45;5.05;;;2.50;;
11197;SDS011;5655;48.744;9.162;2023-07-31T11:56:18;5.32;;;2.97;;
11197;SDS011;5655;48.744;9.162;2023-07-31T11:58:46;6.03;;;2.35;;
11197;SDS011;5655;48.744;9.162;2023-07-31T12:01:13;3.72;;;1.80;;
11197;SDS011;5655;48.744;9.162;2023-07-31T12:03:40;5.13;;;2.50;;
11197;SDS011;5655;48.744;9.162;2023-07-31T12:06:07;5.50;;;2.40;;
11197;SDS011;5655;48.744;9.162;2023-07-31T12:08:33;5.15;;;2.10;;
11197;SDS011;5655;48.744;9.162;2023-07-31T12:11:02;4.85;;;2.65;;
11197;SDS011;5655;48.744;9.162;2023-07-31T12:13:30;4.80;;;2.33;;
11197;SDS011;5655;48.744;9.162;2023-07-31T12:15:57;4.00;;;2.10;;
11197;SDS011;5655;48.744;9.162;2023-07-31T12:18:24;6.20;;;2.47;;
11197;SDS011;5655;48.744;9.162;2023-07-31T12:20:54;8.25;;;3.05;;
11197;SDS011;5655;48.744;9.162;2023-07-31T12:23:25;8.52;;;2.80;;
11197;SDS011;5655;48.744;9.162;2023-07-31T12:28:26;6.05;;;2.53;;
11197;SDS011;5655;48.744;9.162;2023-07-31T12:30:51;5.85;;;2.38;;
11197;SDS011;5655;48.744;9.162;2023-07-31T12:33:23;4.65;;;2.60;;
11197;SDS011;5655;48.744;9.162;2023-07-31T12:35:48;4.80;;;2.35;;
11197;SDS011;5655;48.744;9.162;2023-07-31T12:38:14;12.25;;;2.90;;
11197;SDS011;5655;48.744;9.162;2023-07-31T12:40:40;6.95;;;2.78;;
11197;SDS011;5655;48.744;9.162;2023-07-31T12:43:06;3.80;;;2.22;;
11197;SDS011;5655;48.744;9.162;2023-07-31T12:45:32;7.50;;;2.75;;
11197;SDS011;5655;48.744;9.162;2023-07-31T12:47:59;4.13;;;2.45;;
11197;SDS011;5655;48.744;9.162;2023-07-31T12:50:24;5.80;;;2.70;;
11197;SDS011;5655;48.744;9.162;2023-07-31T12:52:50;4.32;;;2.42;;
11197;SDS011;5655;48.744;9.162;2023-07-31T12:55:16;6.22;;;2.40;;
11197;SDS011;5655;48.744;9.162;2023-07-31T12:57:43;5.88;;;2.63;;
11197;SDS011;5655;48.744;9.162;2023-07-31T13:00:08;4.28;;;2.53;;
11197;SDS011;5655;48.744;9.162;2023-07-31T13:02:34;7.35;;;2.50;;
11197;SDS011;5655;48.744;9.162;2023-07-31T13:04:59;6.78;;;2.28;;
11197;SDS011;5655;48.744;9.162;2023-07-31T13:07:25;6.22;;;2.50;;
11197;SDS011;5655;48.744;9.162;2023-07-31T13:09:50;5.40;;;2.30;;
11197;SDS011;5655;48.744;9.162;2023-07-31T13:12:16;7.13;;;2.38;;
11197;SDS011;5655;48.744;9.162;2023-07-31T13:14:41;6.07;;;2.80;;
11197;SDS011;5655;48.744;9.162;2023-07-31T13:17:07;3.45;;;2.20;;
11197;SDS011;5655;48.744;9.162;2023-07-31T13:19:32;4.25;;;2.90;;
11197;SDS011;5655;48.744;9.162;2023-07-31T13:21:57;3.85;;;2.00;;
11197;SDS011;5655;48.744;9.162;2023-07-31T13:24:23;5.82;;;2.17;;
11197;SDS011;5655;48.744;9.162;2023-07-31T13:26:48;5.78;;;2.30;;
11197;SDS011;5655;48.744;9.162;2023-07-31T13:29:13;4.22;;;2.75;;
11197;SDS011;5655;48.744;9.162;2023-07-31T13:31:39;4.55;;;2.45;;
11197;SDS011;5655;48.744;9.162;2023-07-31T13:34:04;5.68;;;2.45;;
11197;SDS011;5655;48.744;9.162;2023-07-31T13:36:30;3.83;;;2.45;;
11197;SDS011;5655;48.744;9.162;2023-07-31T13:38:55;4.40;;;2.25;;
11197;SDS011;5655;48.744;9.162;2023-07-31T13:41:20;4.57;;;2.72;;
11197;SDS011;5655;48.744;9.162;2023-07-31T13:43:46;3.58;;;2.22;;
11197;SDS011;5655;48.744;9.162;2023-07-31T13:46:11;2.92;;;2.33;;
11197;SDS011;5655;48.744;9.162;2023-07-31T13:48:36;4.18;;;2.30;;
11197;SDS011;5655;48.744;9.162;2023-07-31T13:51:02;4.53;;;2.40;;
11197;SDS011;5655;48.744;9.162;2023-07-31T13:53:27;6.93;;;2.67;;
11197;SDS011;5655;48.744;9.162;2023-07-31T13:55:52;8.02;;;2.35;;
11197;SDS011;5655;48.744;9.162;2023-07-31T13:58:18;4.88;;;2.22;;
11197;SDS011;5655;48.744;9.162;2023-07-31T14:00:43;4.30;;;2.35;;
11197;SDS011;5655;48.744;9.162;2023-07-31T14:03:09;7.63;;;2.55;;
11197;SDS011;5655;48.744;9.162;2023-07-31T14:05:34;3.92;;;2.60;;
11197;SDS011;5655;48.744;9.162;2023-07-31T14:08:00;3.00;;;2.20;;
11197;SDS011;5655;48.744;9.162;2023-07-31T14:10:25;7.43;;;2.40;;
11197;SDS011;5655;48.744;9.162;2023-07-31T14:12:50;3.85;;;2.33;;
11197;SDS011;5655;48.744;9.162;2023-07-31T14:15:16;4.03;;;2.22;;
11197;SDS011;5655;48.744;9.162;2023-07-31T14:17:41;4.43;;;2.60;;
11197;SDS011;5655;48.744;9.162;2023-07-31T14:20:06;3.80;;;2.65;;
11197;SDS011;5655;48.744;9.162;2023-07-31T14:22:32;7.25;;;2.63;;
11197;SDS011;5655;48.744;9.162;2023-07-31T14:24:59;4.30;;;2.15;;
11197;SDS011;5655;48.744;9.162;2023-07-31T14:27:24;3.60;;;2.38;;
11197;SDS011;5655;48.744;9.162;2023-07-31T14:29:50;5.72;;;2.65;;
11197;SDS011;5655;48.744;9.162;2023-07-31T14:32:15;5.93;;;2.72;;
11197;SDS011;5655;48.744;9.162;2023-07-31T14:34:40;6.57;;;2.42;;
11197;SDS011;5655;48.744;9.162;2023-07-31T14:37:06;6.65;;;2.70;;
11197;SDS011;5655;48.744;9.162;2023-07-31T14:39:31;4.95;;;2.72;;
11197;SDS011;5655;48.744;9.162;2023-07-31T14:41:56;6.10;;;2.53;;
11197;SDS011;5655;48.744;9.162;2023-07-31T14:44:22;4.30;;;2.30;;
11197;SDS011;5655;48.744;9.162;2023-07-31T14:46:47;3.50;;;2.47;;
11197;SDS011;5655;48.744;9.162;2023-07-31T14:49:12;3.78;;;2.13;;
11197;SDS011;5655;48.744;9.162;2023-07-31T14:51:38;6.00;;;2.30;;
11197;SDS011;5655;48.744;9.162;2023-07-31T14:54:03;6.40;;;2.83;;
11197;SDS011;5655;48.744;9.162;2023-07-31T14:56:28;5.57;;;2.50;;
11197;SDS011;5655;48.744;9.162;2023-07-31T14:58:54;4.28;;;2.70;;
11197;SDS011;5655;48.744;9.162;2023-07-31T15:01:19;4.32;;;2.60;;
11197;SDS011;5655;48.744;9.162;2023-07-31T15:03:44;4.85;;;2.05;;
11197;SDS011;5655;48.744;9.162;2023-07-31T15:06:10;4.68;;;2.65;;